createdAt,value
2016-10-19T10:47:04.255Z,1012.73
2016-10-19T10:47:29.880Z,1012.73
2016-10-19T10:47:55.457Z,1012.74
2016-10-19T10:48:21.000Z,1012.72
2016-10-19T10:48:46.570Z,1012.71
2016-10-19T10:49:12.151Z,1012.73
2016-10-19T10:49:37.717Z,1012.71
2016-10-19T10:50:03.263Z,1012.75
2016-10-19T10:50:28.845Z,1012.72
2016-10-19T10:50:54.416Z,1012.75
2016-10-19T10:51:19.979Z,1012.71
2016-10-19T10:51:45.544Z,1012.7
2016-10-19T10:52:11.086Z,1012.69
2016-10-19T10:52:36.690Z,1012.69
2016-10-19T10:53:02.281Z,1012.68
2016-10-19T10:53:27.856Z,1012.71
2016-10-19T10:53:53.441Z,1012.71
2016-10-19T10:54:18.985Z,1012.74
2016-10-19T10:54:44.659Z,1012.69
2016-10-19T10:55:10.244Z,1012.72
2016-10-19T10:55:35.812Z,1012.71
2016-10-19T10:56:01.368Z,1012.7
2016-10-19T10:56:27.049Z,1012.71
2016-10-19T10:57:30.240Z,1012.68
2016-10-19T10:57:55.786Z,1012.69
2016-10-19T10:58:21.324Z,1012.75
2016-10-19T10:58:46.872Z,1012.7
2016-10-19T10:59:12.415Z,1012.72
2016-10-19T10:59:38.021Z,1012.7
2016-10-19T11:00:03.549Z,1012.71
2016-10-19T11:00:29.082Z,1012.67
2016-10-19T11:00:54.619Z,1012.71
2016-10-19T11:01:20.168Z,1012.65
2016-10-19T11:01:45.776Z,1012.64
2016-10-19T11:02:11.315Z,1012.66
2016-10-19T11:02:36.869Z,1012.67
2016-10-19T11:03:02.420Z,1012.64
2016-10-19T11:03:27.944Z,1012.66
2016-10-19T11:03:53.491Z,1012.62
2016-10-19T11:04:19.123Z,1012.67
2016-10-19T11:04:44.659Z,1012.64
2016-10-19T11:05:10.187Z,1012.64
2016-10-19T11:05:35.733Z,1012.62
2016-10-19T11:06:01.259Z,1012.64
2016-10-19T11:06:26.878Z,1012.63
2016-10-19T11:06:52.497Z,1012.65
2016-10-19T11:07:18.016Z,1012.64
2016-10-19T11:07:43.559Z,1012.64
2016-10-19T11:08:09.107Z,1012.61
2016-10-19T11:08:34.671Z,1012.62
2016-10-19T11:09:00.223Z,1012.59
2016-10-19T11:09:25.810Z,1012.63
2016-10-19T11:09:51.368Z,1012.64
2016-10-19T11:10:17.045Z,1012.63
2016-10-19T11:10:42.607Z,1012.64
2016-10-19T11:11:08.184Z,1012.64
2016-10-19T11:11:33.730Z,1012.66
2016-10-19T11:11:59.304Z,1012.66
2016-10-19T11:12:24.905Z,1012.64
2016-10-19T11:12:50.477Z,1012.63
2016-10-19T11:13:16.030Z,1012.63
2016-10-19T11:13:41.583Z,1012.61
2016-10-19T11:14:07.138Z,1012.63
2016-10-19T11:14:32.709Z,1012.63
2016-10-19T11:14:58.289Z,1012.63
2016-10-19T11:15:23.853Z,1012.64
2016-10-19T11:15:49.413Z,1012.67
2016-10-19T11:16:14.962Z,1012.7
2016-10-19T11:16:40.505Z,1012.66
2016-10-19T11:17:06.073Z,1012.65
2016-10-19T11:17:31.608Z,1012.65
2016-10-19T11:17:57.174Z,1012.69
2016-10-19T11:18:22.751Z,1012.68
2016-10-19T11:18:48.390Z,1012.69
2016-10-19T11:19:13.952Z,1012.71
2016-10-19T11:19:39.562Z,1012.7
2016-10-19T11:20:05.124Z,1012.7
2016-10-19T11:20:30.688Z,1012.69
2016-10-19T11:20:56.251Z,1012.71
2016-10-19T11:21:21.882Z,1012.67
2016-10-19T11:21:47.464Z,1012.68
2016-10-19T11:22:13.014Z,1012.71
2016-10-19T11:22:38.563Z,1012.71
2016-10-19T11:23:04.128Z,1012.7
2016-10-19T11:23:29.685Z,1012.68
2016-10-19T11:23:55.340Z,1012.71
2016-10-19T11:24:20.896Z,1012.7
2016-10-19T11:24:46.472Z,1012.72
2016-10-19T11:25:12.104Z,1012.73
2016-10-19T11:25:37.692Z,1012.69
2016-10-19T11:26:03.275Z,1012.7
2016-10-19T11:26:28.820Z,1012.67
2016-10-19T11:26:54.415Z,1012.67
2016-10-19T11:27:19.956Z,1012.69
2016-10-19T11:27:45.514Z,1012.75
2016-10-19T11:28:11.072Z,1012.7
2016-10-19T11:28:36.605Z,1012.71
2016-10-19T11:29:02.183Z,1012.65
2016-10-19T11:29:27.729Z,1012.69
2016-10-19T11:29:53.290Z,1012.72
2016-10-19T11:30:18.842Z,1012.68
2016-10-19T11:30:44.414Z,1012.68
2016-10-19T11:31:09.968Z,1012.69
2016-10-19T11:31:35.641Z,1012.65
2016-10-19T11:32:01.202Z,1012.65
2016-10-19T11:32:26.771Z,1012.65
2016-10-19T11:32:52.336Z,1012.69
2016-10-19T11:33:17.875Z,1012.67
2016-10-19T11:34:31.310Z,1012.68
2016-10-19T11:34:56.859Z,1012.67
2016-10-19T11:35:22.401Z,1012.68
2016-10-19T11:36:47.501Z,1012.68
2016-10-19T11:38:48.039Z,1012.63
2016-10-19T11:39:13.636Z,1012.64
2016-10-19T11:39:39.218Z,1012.65
2016-10-19T11:40:04.762Z,1012.63
2016-10-19T11:40:30.402Z,1012.61
2016-10-19T11:40:55.973Z,1012.63
2016-10-19T11:41:21.533Z,1012.67
2016-10-19T11:41:47.119Z,1012.65
2016-10-19T11:42:12.685Z,1012.61
2016-10-19T11:42:38.260Z,1012.62
2016-10-19T11:43:03.879Z,1012.59
2016-10-19T11:43:29.520Z,1012.57
2016-10-19T11:43:55.080Z,1012.59
2016-10-19T11:44:20.659Z,1012.63
2016-10-19T11:45:34.082Z,1012.61
2016-10-19T11:45:59.637Z,1012.57
2016-10-19T11:46:25.190Z,1012.56
2016-10-19T11:46:50.753Z,1012.57
2016-10-19T11:47:16.321Z,1012.54
2016-10-19T11:47:41.909Z,1012.59
2016-10-19T11:48:07.481Z,1012.56
2016-10-19T11:48:33.022Z,1012.58
2016-10-19T11:48:58.572Z,1012.57
2016-10-19T11:49:24.143Z,1012.55
2016-10-19T11:49:49.680Z,1012.58
2016-10-19T11:50:15.303Z,1012.55
2016-10-19T11:50:41.048Z,1012.54
2016-10-19T11:51:06.737Z,1012.55
2016-10-19T11:51:32.295Z,1012.55
2016-10-19T11:51:57.946Z,1012.6
2016-10-19T11:52:23.486Z,1012.55
2016-10-19T11:52:49.042Z,1012.54
2016-10-19T11:53:14.596Z,1012.58
2016-10-19T11:53:40.133Z,1012.54
2016-10-19T11:54:05.692Z,1012.57
2016-10-19T11:54:31.302Z,1012.57
2016-10-19T11:55:34.538Z,1012.53
2016-10-19T11:56:00.100Z,1012.54
2016-10-19T11:56:25.647Z,1012.51
2016-10-19T11:56:51.239Z,1012.51
2016-10-19T11:57:16.802Z,1012.53
2016-10-19T11:57:42.359Z,1012.54
2016-10-19T11:58:08.014Z,1012.52
2016-10-19T11:58:33.589Z,1012.51
2016-10-19T11:58:59.149Z,1012.53
2016-10-19T11:59:24.696Z,1012.53
2016-10-19T11:59:50.258Z,1012.51
2016-10-19T12:00:15.804Z,1012.55
2016-10-19T12:00:41.462Z,1012.5
2016-10-19T12:01:07.009Z,1012.49
2016-10-19T12:01:32.557Z,1012.5
2016-10-19T12:01:58.126Z,1012.53
2016-10-19T12:02:23.797Z,1012.52
2016-10-19T12:02:49.359Z,1012.54
2016-10-19T12:03:14.932Z,1012.52
2016-10-19T12:03:40.505Z,1012.55
2016-10-19T12:04:06.077Z,1012.54
2016-10-19T12:04:31.616Z,1012.54
2016-10-19T12:04:57.152Z,1012.53
2016-10-19T12:05:22.699Z,1012.56
2016-10-19T12:05:48.271Z,1012.54
2016-10-19T12:06:13.844Z,1012.53
2016-10-19T12:06:39.408Z,1012.54
2016-10-19T12:07:04.958Z,1012.55
2016-10-19T12:07:30.527Z,1012.51
2016-10-19T12:07:56.192Z,1012.52
2016-10-19T12:08:21.762Z,1012.56
2016-10-19T12:08:47.323Z,1012.51
2016-10-19T12:09:12.920Z,1012.53
2016-10-19T12:09:38.494Z,1012.51
2016-10-19T12:10:04.127Z,1012.53
2016-10-19T12:10:29.691Z,1012.54
2016-10-19T12:10:55.257Z,1012.52
2016-10-19T12:11:20.817Z,1012.53
2016-10-19T12:11:46.380Z,1012.52
2016-10-19T12:12:11.934Z,1012.58
2016-10-19T12:12:37.477Z,1012.53
2016-10-19T12:13:03.028Z,1012.56
2016-10-19T12:13:28.595Z,1012.55
2016-10-19T12:13:54.143Z,1012.53
2016-10-19T12:14:19.678Z,1012.52
2016-10-19T12:14:45.236Z,1012.55
2016-10-19T12:15:10.787Z,1012.52
2016-10-19T12:15:36.320Z,1012.52
2016-10-19T12:16:01.887Z,1012.52
2016-10-19T12:16:27.517Z,1012.53
2016-10-19T12:16:53.084Z,1012.51
2016-10-19T12:17:18.646Z,1012.51
2016-10-19T12:17:44.210Z,1012.52
2016-10-19T12:18:09.919Z,1012.52
2016-10-19T12:18:35.561Z,1012.51
2016-10-19T12:19:01.132Z,1012.55
2016-10-19T12:19:26.705Z,1012.55
2016-10-19T12:19:52.264Z,1012.46
2016-10-19T12:20:17.841Z,1012.53
2016-10-19T12:20:43.516Z,1012.51
2016-10-19T12:21:09.103Z,1012.51
2016-10-19T12:21:34.642Z,1012.52
2016-10-19T12:22:00.276Z,1012.51
2016-10-19T12:22:25.844Z,1012.54
2016-10-19T12:22:51.441Z,1012.49
2016-10-19T12:23:16.991Z,1012.51
2016-10-19T12:23:42.621Z,1012.47
2016-10-19T12:24:08.220Z,1012.47
2016-10-19T12:24:33.869Z,1012.49
2016-10-19T12:24:59.503Z,1012.5
2016-10-19T12:25:25.062Z,1012.52
2016-10-19T12:25:50.634Z,1012.53
2016-10-19T12:26:16.192Z,1012.5
2016-10-19T12:26:41.721Z,1012.52
2016-10-19T12:27:07.296Z,1012.53
2016-10-19T12:27:32.860Z,1012.5
2016-10-19T12:27:58.415Z,1012.51
2016-10-19T12:28:23.986Z,1012.52
2016-10-19T12:28:49.540Z,1012.52
2016-10-19T12:29:15.090Z,1012.51
2016-10-19T12:29:40.624Z,1012.53
2016-10-19T12:30:06.188Z,1012.54
2016-10-19T12:30:31.733Z,1012.53
2016-10-19T12:30:57.289Z,1012.53
2016-10-19T12:31:22.822Z,1012.52
2016-10-19T12:31:48.436Z,1012.54
2016-10-19T12:32:14.014Z,1012.52
2016-10-19T12:32:39.576Z,1012.55
2016-10-19T12:33:37.728Z,1012.55
2016-10-19T12:34:03.292Z,1012.55
2016-10-19T12:34:28.834Z,1012.56
2016-10-19T12:35:37.106Z,1012.55
2016-10-19T12:36:02.724Z,1012.57
2016-10-19T12:36:28.340Z,1012.58
2016-10-19T12:36:53.897Z,1012.56
2016-10-19T12:37:19.455Z,1012.58
2016-10-19T12:37:45.014Z,1012.55
2016-10-19T12:38:10.600Z,1012.59
2016-10-19T12:38:36.145Z,1012.6
2016-10-19T12:39:01.752Z,1012.56
2016-10-19T12:39:27.306Z,1012.56
2016-10-19T12:39:52.902Z,1012.55
2016-10-19T12:40:18.458Z,1012.56
2016-10-19T12:40:44.044Z,1012.58
2016-10-19T12:41:42.140Z,1012.56
2016-10-19T12:42:07.719Z,1012.56
2016-10-19T12:42:33.344Z,1012.55
2016-10-19T12:42:58.909Z,1012.55
2016-10-19T12:43:24.456Z,1012.54
2016-10-19T12:43:50.138Z,1012.51
2016-10-19T12:44:15.750Z,1012.54
2016-10-19T12:44:41.306Z,1012.55
2016-10-19T12:45:06.925Z,1012.55
2016-10-19T12:45:32.489Z,1012.54
2016-10-19T12:45:58.038Z,1012.56
2016-10-19T12:46:23.582Z,1012.56
2016-10-19T12:46:49.149Z,1012.57
2016-10-19T12:47:14.741Z,1012.52
2016-10-19T12:47:40.291Z,1012.55
2016-10-19T12:48:05.856Z,1012.53
2016-10-19T12:48:31.405Z,1012.51
2016-10-19T12:48:57.006Z,1012.5
2016-10-19T12:49:22.594Z,1012.52
2016-10-19T12:49:48.133Z,1012.55
2016-10-19T12:50:13.731Z,1012.53
2016-10-19T12:50:39.254Z,1012.51
2016-10-19T12:51:04.799Z,1012.53
2016-10-19T12:51:30.355Z,1012.51
2016-10-19T12:51:55.908Z,1012.54
2016-10-19T12:52:21.449Z,1012.55
2016-10-19T12:52:47.012Z,1012.52
2016-10-19T12:53:12.560Z,1012.54
2016-10-19T12:53:38.208Z,1012.55
2016-10-19T12:54:03.746Z,1012.56
2016-10-19T12:54:29.301Z,1012.52
2016-10-19T12:54:54.830Z,1012.51
2016-10-19T12:55:20.362Z,1012.57
2016-10-19T12:55:45.961Z,1012.53
2016-10-19T12:56:11.598Z,1012.54
2016-10-19T12:56:37.159Z,1012.54
2016-10-19T12:57:02.710Z,1012.57
2016-10-19T12:57:28.248Z,1012.54
2016-10-19T12:57:53.799Z,1012.56
2016-10-19T12:58:19.382Z,1012.54
2016-10-19T12:58:44.915Z,1012.53
2016-10-19T12:59:10.446Z,1012.55
2016-10-19T12:59:35.989Z,1012.54
2016-10-19T13:00:01.546Z,1012.55
2016-10-19T13:00:27.080Z,1012.48
2016-10-19T13:01:35.438Z,1012.51
2016-10-19T13:02:00.983Z,1012.52
2016-10-19T13:02:26.530Z,1012.53
2016-10-19T13:02:52.110Z,1012.48
2016-10-19T13:03:17.663Z,1012.52
2016-10-19T13:03:43.219Z,1012.52
2016-10-19T13:04:08.783Z,1012.49
2016-10-19T13:04:34.363Z,1012.49
2016-10-19T13:05:00.030Z,1012.52
2016-10-19T13:05:25.617Z,1012.51
2016-10-19T13:05:51.162Z,1012.47
2016-10-19T13:06:16.721Z,1012.47
2016-10-19T13:06:42.316Z,1012.48
2016-10-19T13:07:07.867Z,1012.48
2016-10-19T13:07:33.452Z,1012.49
2016-10-19T13:07:59.009Z,1012.48
2016-10-19T13:08:24.592Z,1012.51
2016-10-19T13:08:50.152Z,1012.51
2016-10-19T13:09:15.699Z,1012.49
2016-10-19T13:09:41.269Z,1012.45
2016-10-19T13:10:06.838Z,1012.5
2016-10-19T13:10:32.522Z,1012.47
2016-10-19T13:10:58.093Z,1012.48
2016-10-19T13:11:23.637Z,1012.51
2016-10-19T13:11:49.226Z,1012.47
2016-10-19T13:12:14.786Z,1012.48
2016-10-19T13:12:40.357Z,1012.45
2016-10-19T13:13:05.904Z,1012.44
2016-10-19T13:13:31.482Z,1012.48
2016-10-19T13:13:57.045Z,1012.48
2016-10-19T13:14:22.604Z,1012.43
2016-10-19T13:14:48.163Z,1012.46
2016-10-19T13:15:13.712Z,1012.47
2016-10-19T13:15:39.271Z,1012.42
2016-10-19T13:16:04.914Z,1012.44
2016-10-19T13:16:30.496Z,1012.4
2016-10-19T13:16:56.040Z,1012.38
2016-10-19T13:17:21.608Z,1012.45
2016-10-19T13:17:47.273Z,1012.41
2016-10-19T13:18:13.067Z,1012.44
2016-10-19T13:18:38.619Z,1012.44
2016-10-19T13:19:04.188Z,1012.38
2016-10-19T13:19:29.752Z,1012.4
2016-10-19T13:19:55.306Z,1012.44
2016-10-19T13:20:20.846Z,1012.41
2016-10-19T13:20:46.420Z,1012.43
2016-10-19T13:21:12.016Z,1012.4
2016-10-19T13:21:37.578Z,1012.42
2016-10-19T13:22:03.314Z,1012.41
2016-10-19T13:22:28.885Z,1012.39
2016-10-19T13:22:54.461Z,1012.42
2016-10-19T13:23:20.020Z,1012.4
2016-10-19T13:23:45.716Z,1012.42
2016-10-19T13:24:11.286Z,1012.37
2016-10-19T13:24:36.841Z,1012.37
2016-10-19T13:25:02.402Z,1012.42
2016-10-19T13:25:27.964Z,1012.36
2016-10-19T13:25:53.532Z,1012.37
2016-10-19T13:26:19.086Z,1012.4
2016-10-19T13:26:44.635Z,1012.37
2016-10-19T13:27:10.195Z,1012.38
2016-10-19T13:27:35.744Z,1012.36
2016-10-19T13:28:01.324Z,1012.35
2016-10-19T13:28:26.881Z,1012.34
2016-10-19T13:28:52.425Z,1012.34
2016-10-19T13:29:17.976Z,1012.35
2016-10-19T13:29:43.520Z,1012.36
2016-10-19T13:30:09.148Z,1012.36
2016-10-19T13:30:34.731Z,1012.29
2016-10-19T13:31:00.277Z,1012.34
2016-10-19T13:31:25.859Z,1012.36
2016-10-19T13:31:51.415Z,1012.37
2016-10-19T13:32:16.976Z,1012.37
2016-10-19T13:32:42.546Z,1012.39
2016-10-19T13:33:08.104Z,1012.34
2016-10-19T13:33:33.645Z,1012.35
2016-10-19T13:33:59.235Z,1012.34
2016-10-19T13:34:24.791Z,1012.35
2016-10-19T13:35:38.201Z,1012.38
2016-10-19T13:36:03.832Z,1012.38
2016-10-19T13:36:29.374Z,1012.33
2016-10-19T13:36:54.960Z,1012.38
2016-10-19T13:37:20.529Z,1012.38
2016-10-19T13:37:46.207Z,1012.34
2016-10-19T13:38:11.779Z,1012.34
2016-10-19T13:38:37.307Z,1012.35
2016-10-19T13:39:02.921Z,1012.35
2016-10-19T13:39:28.509Z,1012.36
2016-10-19T13:39:54.053Z,1012.35
2016-10-19T13:40:19.607Z,1012.33
2016-10-19T13:40:45.180Z,1012.31
2016-10-19T13:41:10.775Z,1012.36
2016-10-19T13:41:36.326Z,1012.32
2016-10-19T13:42:01.897Z,1012.35
2016-10-19T13:42:27.474Z,1012.35
2016-10-19T13:42:53.074Z,1012.36
2016-10-19T13:43:18.647Z,1012.34
2016-10-19T13:43:44.197Z,1012.34
2016-10-19T13:44:09.781Z,1012.33
2016-10-19T13:44:35.452Z,1012.39
2016-10-19T13:45:01.011Z,1012.32
2016-10-19T13:45:26.567Z,1012.35
2016-10-19T13:45:52.130Z,1012.33
2016-10-19T13:46:17.798Z,1012.35
2016-10-19T13:46:43.361Z,1012.34
2016-10-19T13:47:08.930Z,1012.38
2016-10-19T13:47:34.479Z,1012.36
2016-10-19T13:48:00.044Z,1012.34
2016-10-19T13:48:25.739Z,1012.32
2016-10-19T13:48:51.285Z,1012.3
2016-10-19T13:49:16.839Z,1012.34
2016-10-19T13:49:42.391Z,1012.34
2016-10-19T13:50:07.961Z,1012.33
2016-10-19T13:50:33.524Z,1012.36
2016-10-19T13:50:59.119Z,1012.36
2016-10-19T13:51:24.702Z,1012.29
2016-10-19T13:51:50.271Z,1012.36
2016-10-19T13:52:15.908Z,1012.35
2016-10-19T13:52:41.485Z,1012.33
2016-10-19T13:53:07.032Z,1012.34
2016-10-19T13:53:32.714Z,1012.34
2016-10-19T13:53:58.287Z,1012.34
2016-10-19T13:54:23.850Z,1012.34
2016-10-19T13:54:49.421Z,1012.38
2016-10-19T13:55:15.004Z,1012.35
2016-10-19T13:55:40.559Z,1012.32
2016-10-19T13:56:06.098Z,1012.3
2016-10-19T13:56:31.690Z,1012.35
2016-10-19T13:56:57.233Z,1012.33
2016-10-19T13:57:22.807Z,1012.29
2016-10-19T13:57:48.378Z,1012.33
2016-10-19T13:58:13.942Z,1012.33
2016-10-19T13:58:39.518Z,1012.34
2016-10-19T13:59:05.045Z,1012.36
2016-10-19T13:59:30.595Z,1012.36
2016-10-19T13:59:56.163Z,1012.34
2016-10-19T14:00:21.713Z,1012.36
2016-10-19T14:00:47.297Z,1012.36
2016-10-19T14:01:12.897Z,1012.34
2016-10-19T14:01:38.472Z,1012.3
2016-10-19T14:02:04.086Z,1012.31
2016-10-19T14:02:29.647Z,1012.35
2016-10-19T14:02:55.189Z,1012.33
2016-10-19T14:03:20.813Z,1012.35
2016-10-19T14:03:46.400Z,1012.34
2016-10-19T14:04:11.998Z,1012.29
2016-10-19T14:04:37.636Z,1012.32
2016-10-19T14:05:03.221Z,1012.33
2016-10-19T14:05:28.761Z,1012.36
2016-10-19T14:05:54.315Z,1012.33
2016-10-19T14:06:19.883Z,1012.34
2016-10-19T14:06:45.444Z,1012.32
2016-10-19T14:07:11.019Z,1012.31
2016-10-19T14:07:36.565Z,1012.34
2016-10-19T14:08:02.127Z,1012.29
2016-10-19T14:08:27.697Z,1012.33
2016-10-19T14:08:53.300Z,1012.36
2016-10-19T14:09:18.884Z,1012.35
2016-10-19T14:09:44.431Z,1012.31
2016-10-19T14:10:10.028Z,1012.34
2016-10-19T14:10:35.617Z,1012.33
2016-10-19T14:11:01.185Z,1012.34
2016-10-19T14:11:26.769Z,1012.32
2016-10-19T14:11:52.371Z,1012.32
2016-10-19T14:12:17.930Z,1012.27
2016-10-19T14:12:43.487Z,1012.32
2016-10-19T14:13:09.029Z,1012.29
2016-10-19T14:13:34.573Z,1012.32
2016-10-19T14:14:00.132Z,1012.35
2016-10-19T14:14:25.745Z,1012.35
2016-10-19T14:14:51.306Z,1012.32
2016-10-19T14:15:16.882Z,1012.33
2016-10-19T14:15:42.556Z,1012.3
2016-10-19T14:16:08.140Z,1012.36
2016-10-19T14:16:33.690Z,1012.3
2016-10-19T14:16:59.254Z,1012.31
2016-10-19T14:17:24.821Z,1012.31
2016-10-19T14:17:50.386Z,1012.31
2016-10-19T14:18:15.927Z,1012.31
2016-10-19T14:18:41.523Z,1012.27
2016-10-19T14:19:07.113Z,1012.29
2016-10-19T14:19:32.659Z,1012.29
2016-10-19T14:19:58.212Z,1012.3
2016-10-19T14:20:23.781Z,1012.32
2016-10-19T14:20:49.458Z,1012.32
2016-10-19T14:21:15.019Z,1012.27
2016-10-19T14:21:40.574Z,1012.3
2016-10-19T14:22:06.119Z,1012.3
2016-10-19T14:22:31.697Z,1012.3
2016-10-19T14:22:57.265Z,1012.28
2016-10-19T14:23:22.825Z,1012.3
2016-10-19T14:23:48.473Z,1012.31
2016-10-19T14:24:14.021Z,1012.29
2016-10-19T14:24:39.629Z,1012.32
2016-10-19T14:25:05.194Z,1012.31
2016-10-19T14:25:30.755Z,1012.29
2016-10-19T14:25:56.306Z,1012.3
2016-10-19T14:26:21.842Z,1012.33
2016-10-19T14:26:48.258Z,1012.31
2016-10-19T14:27:13.812Z,1012.32
2016-10-19T14:27:39.389Z,1012.32
2016-10-19T14:28:37.517Z,1012.34
2016-10-19T14:29:03.071Z,1012.32
2016-10-19T14:29:28.639Z,1012.33
2016-10-19T14:29:54.204Z,1012.33
2016-10-19T14:30:19.776Z,1012.36
2016-10-19T14:30:45.434Z,1012.38
2016-10-19T14:31:10.984Z,1012.35
2016-10-19T14:31:36.556Z,1012.36
2016-10-19T14:32:39.718Z,1012.37
2016-10-19T14:33:05.372Z,1012.4
2016-10-19T14:33:30.991Z,1012.36
2016-10-19T14:33:56.547Z,1012.37
2016-10-19T14:34:22.142Z,1012.36
2016-10-19T14:34:47.705Z,1012.4
2016-10-19T14:35:13.258Z,1012.37
2016-10-19T14:35:38.783Z,1012.34
2016-10-19T14:36:04.349Z,1012.37
2016-10-19T14:36:29.896Z,1012.37
2016-10-19T14:36:55.549Z,1012.36
2016-10-19T14:37:21.110Z,1012.37
2016-10-19T14:37:46.672Z,1012.34
2016-10-19T14:38:12.244Z,1012.37
2016-10-19T14:38:37.869Z,1012.35
2016-10-19T14:39:03.442Z,1012.34
2016-10-19T14:39:28.986Z,1012.4
2016-10-19T14:40:37.340Z,1012.39
2016-10-19T14:42:50.803Z,1012.36
2016-10-19T14:43:16.367Z,1012.41
2016-10-19T14:43:41.929Z,1012.38
2016-10-19T14:44:07.628Z,1012.42
2016-10-19T14:44:33.262Z,1012.44
2016-10-19T14:44:58.940Z,1012.39
2016-10-19T14:45:24.535Z,1012.39
2016-10-19T14:45:50.098Z,1012.38
2016-10-19T14:46:15.659Z,1012.4
2016-10-19T14:46:41.209Z,1012.38
2016-10-19T14:47:06.790Z,1012.39
2016-10-19T14:47:32.366Z,1012.38
2016-10-19T14:47:57.915Z,1012.35
2016-10-19T14:48:23.520Z,1012.38
2016-10-19T14:48:49.110Z,1012.38
2016-10-19T14:49:14.676Z,1012.38
2016-10-19T14:49:40.242Z,1012.37
2016-10-19T14:50:05.814Z,1012.37
2016-10-19T14:50:31.347Z,1012.4
2016-10-19T14:50:56.899Z,1012.4
2016-10-19T14:51:22.454Z,1012.42
2016-10-19T14:51:48.020Z,1012.4
2016-10-19T14:52:13.573Z,1012.39
2016-10-19T14:52:39.164Z,1012.39
2016-10-19T14:53:04.740Z,1012.41
2016-10-19T14:53:30.294Z,1012.38
2016-10-19T14:53:55.927Z,1012.39
2016-10-19T14:54:21.494Z,1012.39
2016-10-19T14:54:47.071Z,1012.37
2016-10-19T14:55:12.622Z,1012.39
2016-10-19T14:55:38.200Z,1012.42
2016-10-19T14:56:03.793Z,1012.4
2016-10-19T14:56:29.350Z,1012.45
2016-10-19T14:56:54.896Z,1012.43
2016-10-19T14:57:20.469Z,1012.44
2016-10-19T14:57:46.022Z,1012.41
2016-10-19T14:58:11.585Z,1012.38
2016-10-19T14:58:37.178Z,1012.39
2016-10-19T14:59:02.768Z,1012.4
2016-10-19T14:59:28.323Z,1012.42
2016-10-19T14:59:53.893Z,1012.39
2016-10-19T15:00:19.460Z,1012.4
2016-10-19T15:00:44.991Z,1012.41
2016-10-19T15:01:10.536Z,1012.45
2016-10-19T15:01:36.060Z,1012.37
2016-10-19T15:02:01.615Z,1012.38
2016-10-19T15:02:27.272Z,1012.39
2016-10-19T15:02:52.826Z,1012.42
2016-10-19T15:03:18.382Z,1012.41
2016-10-19T15:03:43.946Z,1012.4
2016-10-19T15:04:09.601Z,1012.39
2016-10-19T15:04:35.173Z,1012.42
2016-10-19T15:05:00.742Z,1012.38
2016-10-19T15:05:26.314Z,1012.39
2016-10-19T15:05:51.892Z,1012.42
2016-10-19T15:06:17.488Z,1012.41
2016-10-19T15:06:43.114Z,1012.4
2016-10-19T15:07:08.697Z,1012.41
2016-10-19T15:07:34.277Z,1012.41
2016-10-19T15:07:59.963Z,1012.37
2016-10-19T15:08:25.545Z,1012.37
2016-10-19T15:08:51.101Z,1012.39
2016-10-19T15:09:16.689Z,1012.38
2016-10-19T15:09:42.266Z,1012.37
2016-10-19T15:10:07.835Z,1012.37
2016-10-19T15:10:33.463Z,1012.39
2016-10-19T15:10:59.022Z,1012.33
2016-10-19T15:11:24.584Z,1012.36
2016-10-19T15:12:43.280Z,1012.36
2016-10-19T15:13:08.830Z,1012.34
2016-10-19T15:13:34.377Z,1012.35
2016-10-19T15:13:59.947Z,1012.36
2016-10-19T15:14:25.593Z,1012.37
2016-10-19T15:14:51.161Z,1012.37
2016-10-19T15:15:16.735Z,1012.37
2016-10-19T15:16:35.344Z,1012.37
2016-10-19T15:17:00.944Z,1012.37
2016-10-19T15:17:26.478Z,1012.39
2016-10-19T15:17:52.038Z,1012.38
2016-10-19T15:18:17.605Z,1012.36
2016-10-19T15:18:43.173Z,1012.37
2016-10-19T15:19:08.891Z,1012.35
2016-10-19T15:19:34.457Z,1012.37
2016-10-19T15:19:59.999Z,1012.38
2016-10-19T15:20:25.544Z,1012.37
2016-10-19T15:20:51.897Z,1012.42
2016-10-19T15:21:17.473Z,1012.4
2016-10-19T15:21:43.033Z,1012.36
2016-10-19T15:22:08.604Z,1012.38
2016-10-19T15:22:34.152Z,1012.37
2016-10-19T15:22:59.694Z,1012.4
2016-10-19T15:23:25.246Z,1012.41
2016-10-19T15:23:50.798Z,1012.41
2016-10-19T15:24:16.388Z,1012.4
2016-10-19T15:24:41.951Z,1012.44
2016-10-19T15:25:07.489Z,1012.41
2016-10-19T15:25:33.041Z,1012.44
2016-10-19T15:25:58.585Z,1012.49
2016-10-19T15:26:24.232Z,1012.49
2016-10-19T15:26:49.771Z,1012.46
2016-10-19T15:27:15.341Z,1012.46
2016-10-19T15:27:40.896Z,1012.46
2016-10-19T15:28:06.527Z,1012.53
2016-10-19T15:28:32.057Z,1012.43
2016-10-19T15:28:57.590Z,1012.45
2016-10-19T15:29:23.126Z,1012.43
2016-10-19T15:29:48.669Z,1012.45
2016-10-19T15:30:14.272Z,1012.46
2016-10-19T15:30:39.828Z,1012.45
2016-10-19T15:31:05.374Z,1012.45
2016-10-19T15:31:30.900Z,1012.44
2016-10-19T15:31:56.451Z,1012.45
2016-10-19T15:32:21.993Z,1012.49
2016-10-19T15:32:47.553Z,1012.43
2016-10-19T15:33:13.098Z,1012.4
2016-10-19T15:33:38.651Z,1012.45
2016-10-19T15:34:04.194Z,1012.42
2016-10-19T15:34:29.774Z,1012.42
2016-10-19T15:34:55.338Z,1012.5
2016-10-19T15:35:20.996Z,1012.45
2016-10-19T15:35:46.537Z,1012.46
2016-10-19T15:36:12.178Z,1012.47
2016-10-19T15:36:37.838Z,1012.47
2016-10-19T15:37:03.424Z,1012.45
2016-10-19T15:37:28.969Z,1012.46
2016-10-19T15:37:54.652Z,1012.47
2016-10-19T15:38:20.214Z,1012.46
2016-10-19T15:38:45.755Z,1012.48
2016-10-19T15:39:11.322Z,1012.46
2016-10-19T15:39:36.881Z,1012.45
2016-10-19T15:40:02.468Z,1012.5
2016-10-19T15:40:28.025Z,1012.49
2016-10-19T15:40:53.591Z,1012.47
2016-10-19T15:41:19.161Z,1012.49
2016-10-19T15:41:44.726Z,1012.52
2016-10-19T15:42:10.268Z,1012.55
2016-10-19T15:42:35.846Z,1012.57
2016-10-19T15:43:01.416Z,1012.55
2016-10-19T15:43:26.971Z,1012.56
2016-10-19T15:43:52.525Z,1012.53
2016-10-19T15:44:18.073Z,1012.58
2016-10-19T15:44:43.628Z,1012.55
2016-10-19T15:45:09.255Z,1012.59
2016-10-19T15:45:34.905Z,1012.56
2016-10-19T15:46:00.450Z,1012.58
2016-10-19T15:46:26.008Z,1012.59
2016-10-19T15:46:51.559Z,1012.6
2016-10-19T15:47:17.163Z,1012.52
2016-10-19T15:47:42.740Z,1012.57
2016-10-19T15:48:08.350Z,1012.59
2016-10-19T15:48:33.911Z,1012.58
2016-10-19T15:48:59.566Z,1012.56
2016-10-19T15:49:25.157Z,1012.58
2016-10-19T15:49:50.778Z,1012.61
2016-10-19T15:50:16.355Z,1012.59
2016-10-19T15:50:41.939Z,1012.59
2016-10-19T15:51:07.526Z,1012.63
2016-10-19T15:51:33.084Z,1012.58
2016-10-19T15:51:58.661Z,1012.64
2016-10-19T15:52:24.260Z,1012.59
2016-10-19T15:52:49.817Z,1012.62
2016-10-19T15:53:15.360Z,1012.61
2016-10-19T15:53:41.680Z,1012.57
2016-10-19T15:54:07.292Z,1012.61
2016-10-19T15:54:32.855Z,1012.67
2016-10-19T15:54:58.419Z,1012.65
2016-10-19T15:55:23.977Z,1012.63
2016-10-19T15:55:49.684Z,1012.67
2016-10-19T15:56:15.232Z,1012.65
2016-10-19T15:56:40.864Z,1012.67
2016-10-19T15:57:06.458Z,1012.65
2016-10-19T15:57:32.012Z,1012.64
2016-10-19T15:57:57.594Z,1012.66
2016-10-19T15:58:23.422Z,1012.65
2016-10-19T15:58:48.991Z,1012.7
2016-10-19T15:59:14.955Z,1012.68
2016-10-19T15:59:40.509Z,1012.66
2016-10-19T16:00:06.082Z,1012.65
2016-10-19T16:00:31.913Z,1012.71
2016-10-19T16:00:57.594Z,1012.68
2016-10-19T16:01:23.292Z,1012.69
2016-10-19T16:01:49.160Z,1012.7
2016-10-19T16:02:14.795Z,1012.66
2016-10-19T16:02:40.384Z,1012.71
2016-10-19T16:03:06.108Z,1012.71
2016-10-19T16:03:31.685Z,1012.71
2016-10-19T16:03:57.298Z,1012.72
2016-10-19T16:04:22.840Z,1012.73
2016-10-19T16:05:36.236Z,1012.76
2016-10-19T16:06:01.791Z,1012.74
2016-10-19T16:06:27.420Z,1012.76
2016-10-19T16:06:53.086Z,1012.74
2016-10-19T16:07:18.647Z,1012.74
2016-10-19T16:07:44.258Z,1012.75
2016-10-19T16:08:09.808Z,1012.76
2016-10-19T16:08:35.618Z,1012.76
2016-10-19T16:09:02.237Z,1012.78
2016-10-19T16:09:27.980Z,1012.76
2016-10-19T16:09:53.719Z,1012.78
2016-10-19T16:10:20.029Z,1012.81
2016-10-19T16:10:45.117Z,1012.77
2016-10-19T16:11:10.885Z,1012.78
2016-10-19T16:11:36.575Z,1012.79
2016-10-19T16:12:02.480Z,1012.8